sensor_id;sensor_type;location;lat;lon;timestamp;pressure;altitude;pressure_sealevel;temperature;humidity
33697;BME280;20031;43.416;23.232;2024-01-25T00:00:17;100428.03;;;5.19;87.00
33697;BME280;20031;43.416;23.232;2024-01-25T00:02:42;100418.28;;;5.11;87.37
33697;BME280;20031;43.416;23.232;2024-01-25T00:05:08;100414.66;;;5.03;87.43
33697;BME280;20031;43.416;23.232;2024-01-25T00:07:33;100411.91;;;4.94;87.48
33697;BME280;20031;43.416;23.232;2024-01-25T00:09:59;100421.44;;;4.93;87.92
33697;BME280;20031;43.416;23.232;2024-01-25T00:12:24;100428.56;;;4.90;87.47
33697;BME280;20031;43.416;23.232;2024-01-25T00:14:50;100439.50;;;4.93;87.94
33697;BME280;20031;43.416;23.232;2024-01-25T00:17:16;100430.09;;;4.92;88.01
33697;BME280;20031;43.416;23.232;2024-01-25T00:19:41;100428.94;;;4.96;87.88
33697;BME280;20031;43.416;23.232;2024-01-25T00:22:07;100422.13;;;4.95;88.24
33697;BME280;20031;43.416;23.232;2024-01-25T00:24:32;100426.59;;;5.04;88.71
33697;BME280;20031;43.416;23.232;2024-01-25T00:26:58;100413.38;;;5.08;88.70
33697;BME280;20031;43.416;23.232;2024-01-25T00:29:23;100408.78;;;5.12;89.04
33697;BME280;20031;43.416;23.232;2024-01-25T00:31:49;100409.47;;;5.14;89.24
33697;BME280;20031;43.416;23.232;2024-01-25T00:34:15;100397.88;;;5.19;88.96
33697;BME280;20031;43.416;23.232;2024-01-25T00:36:40;100400.34;;;5.21;88.78
33697;BME280;20031;43.416;23.232;2024-01-25T00:39:06;100408.69;;;5.24;89.00
33697;BME280;20031;43.416;23.232;2024-01-25T00:41:32;100403.97;;;5.29;89.09
33697;BME280;20031;43.416;23.232;2024-01-25T00:43:58;100391.78;;;5.31;89.36
33697;BME280;20031;43.416;23.232;2024-01-25T00:46:24;100382.41;;;5.30;89.56
33697;BME280;20031;43.416;23.232;2024-01-25T00:48:50;100379.22;;;5.38;89.45
33697;BME280;20031;43.416;23.232;2024-01-25T00:51:21;100390.38;;;5.38;89.56
33697;BME280;20031;43.416;23.232;2024-01-25T00:53:47;100379.22;;;5.38;89.55
33697;BME280;20031;43.416;23.232;2024-01-25T00:56:13;100380.28;;;5.46;89.64
33697;BME280;20031;43.416;23.232;2024-01-25T00:58:38;100358.88;;;5.55;90.27
33697;BME280;20031;43.416;23.232;2024-01-25T01:01:04;100357.00;;;5.68;90.41
33697;BME280;20031;43.416;23.232;2024-01-25T01:03:30;100348.69;;;5.75;90.41
33697;BME280;20031;43.416;23.232;2024-01-25T01:05:56;100360.75;;;5.86;90.86
33697;BME280;20031;43.416;23.232;2024-01-25T01:08:23;100357.75;;;6.01;90.50
33697;BME280;20031;43.416;23.232;2024-01-25T01:10:48;100361.50;;;6.08;90.66
33697;BME280;20031;43.416;23.232;2024-01-25T01:13:14;100366.75;;;6.17;90.26
33697;BME280;20031;43.416;23.232;2024-01-25T01:15:39;100352.63;;;6.21;90.10
33697;BME280;20031;43.416;23.232;2024-01-25T01:18:05;100351.03;;;6.41;91.30
33697;BME280;20031;43.416;23.232;2024-01-25T01:20:30;100348.94;;;6.55;90.29
33697;BME280;20031;43.416;23.232;2024-01-25T01:22:56;100349.94;;;6.63;90.38
33697;BME280;20031;43.416;23.232;2024-01-25T01:25:21;100343.00;;;6.84;90.10
33697;BME280;20031;43.416;23.232;2024-01-25T01:27:47;100338.59;;;7.05;89.96
33697;BME280;20031;43.416;23.232;2024-01-25T01:30:12;100327.66;;;7.89;92.67
33697;BME280;20031;43.416;23.232;2024-01-25T01:32:38;100325.50;;;8.41;89.40
33697;BME280;20031;43.416;23.232;2024-01-25T01:35:04;100328.22;;;8.49;86.49
33697;BME280;20031;43.416;23.232;2024-01-25T01:37:29;100324.56;;;8.97;85.20
33697;BME280;20031;43.416;23.232;2024-01-25T01:39:55;100329.09;;;8.95;81.62
33697;BME280;20031;43.416;23.232;2024-01-25T01:42:21;100324.94;;;9.38;81.36
33697;BME280;20031;43.416;23.232;2024-01-25T01:44:49;100327.19;;;10.04;76.05
33697;BME280;20031;43.416;23.232;2024-01-25T01:47:15;100324.16;;;10.34;71.90
33697;BME280;20031;43.416;23.232;2024-01-25T01:49:42;100324.47;;;10.31;68.71
33697;BME280;20031;43.416;23.232;2024-01-25T01:52:07;100311.56;;;10.21;68.03
33697;BME280;20031;43.416;23.232;2024-01-25T01:54:33;100312.00;;;10.17;67.29
33697;BME280;20031;43.416;23.232;2024-01-25T01:56:59;100318.69;;;10.02;66.24
33697;BME280;20031;43.416;23.232;2024-01-25T01:59:25;100306.94;;;9.98;66.44
33697;BME280;20031;43.416;23.232;2024-01-25T02:01:52;100297.19;;;10.18;66.40
33697;BME280;20031;43.416;23.232;2024-01-25T02:04:17;100287.50;;;10.45;64.52
33697;BME280;20031;43.416;23.232;2024-01-25T02:06:43;100294.81;;;10.67;63.32
33697;BME280;20031;43.416;23.232;2024-01-25T02:09:09;100287.59;;;10.86;61.74
33697;BME280;20031;43.416;23.232;2024-01-25T02:11:35;100302.19;;;10.79;61.24
33697;BME280;20031;43.416;23.232;2024-01-25T02:14:00;100308.84;;;10.73;61.78
33697;BME280;20031;43.416;23.232;2024-01-25T02:16:26;100300.44;;;10.79;61.44
33697;BME280;20031;43.416;23.232;2024-01-25T02:18:51;100299.81;;;10.85;60.50
33697;BME280;20031;43.416;23.232;2024-01-25T02:21:19;100297.84;;;10.87;60.00
33697;BME280;20031;43.416;23.232;2024-01-25T02:23:45;100294.69;;;10.76;60.16
33697;BME280;20031;43.416;23.232;2024-01-25T02:26:10;100304.56;;;10.65;60.60
33697;BME280;20031;43.416;23.232;2024-01-25T02:28:35;100296.34;;;10.52;60.62
33697;BME280;20031;43.416;23.232;2024-01-25T02:31:02;100306.09;;;10.50;61.14
33697;BME280;20031;43.416;23.232;2024-01-25T02:33:27;100302.16;;;10.71;60.68
33697;BME280;20031;43.416;23.232;2024-01-25T02:35:53;100292.16;;;10.59;59.78
33697;BME280;20031;43.416;23.232;2024-01-25T02:38:18;100286.84;;;10.43;60.06
33697;BME280;20031;43.416;23.232;2024-01-25T02:40:44;100287.28;;;10.38;60.44
33697;BME280;20031;43.416;23.232;2024-01-25T02:43:09;100291.13;;;10.52;59.32
33697;BME280;20031;43.416;23.232;2024-01-25T02:45:35;100297.44;;;10.49;60.10
33697;BME280;20031;43.416;23.232;2024-01-25T02:48:00;100293.25;;;10.56;59.45
33697;BME280;20031;43.416;23.232;2024-01-25T02:50:27;100293.09;;;10.75;58.57
33697;BME280;20031;43.416;23.232;2024-01-25T02:52:53;100295.56;;;10.84;58.02
33697;BME280;20031;43.416;23.232;2024-01-25T02:55:19;100302.16;;;10.71;57.63
33697;BME280;20031;43.416;23.232;2024-01-25T02:57:44;100293.97;;;10.66;57.85
33697;BME280;20031;43.416;23.232;2024-01-25T03:00:10;100298.69;;;10.63;58.19
33697;BME280;20031;43.416;23.232;2024-01-25T03:02:36;100291.50;;;10.57;57.99
33697;BME280;20031;43.416;23.232;2024-01-25T03:05:01;100291.44;;;10.49;58.64
33697;BME280;20031;43.416;23.232;2024-01-25T03:07:27;100295.22;;;10.54;58.16
33697;BME280;20031;43.416;23.232;2024-01-25T03:09:52;100289.84;;;10.56;57.49
33697;BME280;20031;43.416;23.232;2024-01-25T03:12:19;100271.41;;;10.49;58.10
33697;BME280;20031;43.416;23.232;2024-01-25T03:14:45;100276.53;;;10.59;57.57
33697;BME280;20031;43.416;23.232;2024-01-25T03:17:10;100284.28;;;10.51;57.19
33697;BME280;20031;43.416;23.232;2024-01-25T03:19:37;100282.59;;;10.67;56.99
33697;BME280;20031;43.416;23.232;2024-01-25T03:22:03;100284.84;;;10.62;56.83
33697;BME280;20031;43.416;23.232;2024-01-25T03:24:28;100295.06;;;10.56;56.51
33697;BME280;20031;43.416;23.232;2024-01-25T03:26:54;100310.13;;;10.69;56.52
33697;BME280;20031;43.416;23.232;2024-01-25T03:29:19;100306.59;;;10.78;55.87
33697;BME280;20031;43.416;23.232;2024-01-25T03:31:45;100313.09;;;10.74;56.12
33697;BME280;20031;43.416;23.232;2024-01-25T03:34:10;100323.81;;;10.71;55.93
33697;BME280;20031;43.416;23.232;2024-01-25T03:36:37;100302.81;;;10.73;56.13
33697;BME280;20031;43.416;23.232;2024-01-25T03:39:04;100306.78;;;10.85;55.33
33697;BME280;20031;43.416;23.232;2024-01-25T03:41:30;100307.25;;;10.80;55.51
33697;BME280;20031;43.416;23.232;2024-01-25T03:43:55;100305.97;;;10.76;55.25
33697;BME280;20031;43.416;23.232;2024-01-25T03:46:20;100308.41;;;10.78;54.81
33697;BME280;20031;43.416;23.232;2024-01-25T03:48:46;100314.91;;;10.82;54.83
33697;BME280;20031;43.416;23.232;2024-01-25T03:51:11;100320.44;;;10.79;54.93
33697;BME280;20031;43.416;23.232;2024-01-25T03:53:37;100326.94;;;10.75;54.70
33697;BME280;20031;43.416;23.232;2024-01-25T03:56:02;100335.50;;;10.68;54.81
33697;BME280;20031;43.416;23.232;2024-01-25T03:58:28;100339.78;;;10.51;55.56
33697;BME280;20031;43.416;23.232;2024-01-25T04:00:53;100342.28;;;10.35;56.12
33697;BME280;20031;43.416;23.232;2024-01-25T04:03:19;100342.34;;;10.26;56.39
33697;BME280;20031;43.416;23.232;2024-01-25T04:05:44;100352.91;;;10.07;56.57
33697;BME280;20031;43.416;23.232;2024-01-25T04:08:10;100350.31;;;9.80;57.21
33697;BME280;20031;43.416;23.232;2024-01-25T04:10:35;100345.75;;;9.82;58.13
33697;BME280;20031;43.416;23.232;2024-01-25T04:13:01;100344.81;;;9.83;57.81
33697;BME280;20031;43.416;23.232;2024-01-25T04:15:27;100344.41;;;9.78;57.80
33697;BME280;20031;43.416;23.232;2024-01-25T04:17:52;100355.03;;;9.67;58.09
33697;BME280;20031;43.416;23.232;2024-01-25T04:20:18;100357.50;;;9.69;58.43
33697;BME280;20031;43.416;23.232;2024-01-25T04:22:44;100365.63;;;9.83;58.17
33697;BME280;20031;43.416;23.232;2024-01-25T04:25:10;100364.06;;;9.90;57.43
33697;BME280;20031;43.416;23.232;2024-01-25T04:27:37;100373.50;;;9.91;57.10
33697;BME280;20031;43.416;23.232;2024-01-25T04:30:04;100374.22;;;9.84;57.56
33697;BME280;20031;43.416;23.232;2024-01-25T04:32:30;100377.94;;;9.81;57.50
33697;BME280;20031;43.416;23.232;2024-01-25T04:34:55;100371.75;;;9.65;57.19
33697;BME280;20031;43.416;23.232;2024-01-25T04:37:21;100366.06;;;9.52;58.33
33697;BME280;20031;43.416;23.232;2024-01-25T04:39:46;100371.69;;;9.48;58.20
33697;BME280;20031;43.416;23.232;2024-01-25T04:42:11;100375.91;;;9.49;58.27
33697;BME280;20031;43.416;23.232;2024-01-25T04:44:37;100370.63;;;9.41;58.11
33697;BME280;20031;43.416;23.232;2024-01-25T04:47:02;100380.13;;;9.23;58.45
33697;BME280;20031;43.416;23.232;2024-01-25T04:49:28;100370.56;;;9.50;58.80
33697;BME280;20031;43.416;23.232;2024-01-25T04:51:53;100378.22;;;9.52;57.80
33697;BME280;20031;43.416;23.232;2024-01-25T04:54:18;100382.84;;;9.31;57.74
33697;BME280;20031;43.416;23.232;2024-01-25T04:56:44;100388.38;;;9.09;57.90
33697;BME280;20031;43.416;23.232;2024-01-25T04:59:09;100394.84;;;8.86;58.64
33697;BME280;20031;43.416;23.232;2024-01-25T05:01:35;100389.28;;;8.72;59.12
33697;BME280;20031;43.416;23.232;2024-01-25T05:04:01;100390.91;;;8.63;60.34
33697;BME280;20031;43.416;23.232;2024-01-25T05:06:26;100394.75;;;8.78;60.26
33697;BME280;20031;43.416;23.232;2024-01-25T05:08:52;100395.78;;;8.95;59.59
33697;BME280;20031;43.416;23.232;2024-01-25T05:11:17;100407.16;;;8.94;59.09
33697;BME280;20031;43.416;23.232;2024-01-25T05:13:43;100409.34;;;8.98;59.43
33697;BME280;20031;43.416;23.232;2024-01-25T05:16:09;100403.72;;;8.93;59.17
33697;BME280;20031;43.416;23.232;2024-01-25T05:18:34;100411.94;;;8.79;58.58
33697;BME280;20031;43.416;23.232;2024-01-25T05:21:00;100419.63;;;8.71;59.18
33697;BME280;20031;43.416;23.232;2024-01-25T05:23:25;100425.06;;;8.78;59.38
33697;BME280;20031;43.416;23.232;2024-01-25T05:25:51;100434.31;;;9.09;58.81
33697;BME280;20031;43.416;23.232;2024-01-25T05:28:16;100416.78;;;9.20;57.48
33697;BME280;20031;43.416;23.232;2024-01-25T05:30:42;100422.44;;;9.06;57.17
33697;BME280;20031;43.416;23.232;2024-01-25T05:33:07;100422.56;;;9.05;57.63
33697;BME280;20031;43.416;23.232;2024-01-25T05:35:32;100430.22;;;9.06;58.12
33697;BME280;20031;43.416;23.232;2024-01-25T05:38:01;100429.13;;;9.09;57.74
33697;BME280;20031;43.416;23.232;2024-01-25T05:40:26;100432.28;;;9.03;57.67
33697;BME280;20031;43.416;23.232;2024-01-25T05:42:52;100437.34;;;8.95;57.51
33697;BME280;20031;43.416;23.232;2024-01-25T05:45:17;100441.47;;;8.97;58.03
33697;BME280;20031;43.416;23.232;2024-01-25T05:47:45;100441.31;;;8.99;57.81
33697;BME280;20031;43.416;23.232;2024-01-25T05:50:11;100435.44;;;8.87;58.11
33697;BME280;20031;43.416;23.232;2024-01-25T05:52:36;100431.88;;;8.98;57.82
33697;BME280;20031;43.416;23.232;2024-01-25T05:55:04;100431.34;;;9.04;57.54
33697;BME280;20031;43.416;23.232;2024-01-25T05:57:29;100437.06;;;9.07;57.15
33697;BME280;20031;43.416;23.232;2024-01-25T05:59:55;100426.94;;;9.14;56.81
33697;BME280;20031;43.416;23.232;2024-01-25T06:02:20;100439.91;;;9.23;55.92
33697;BME280;20031;43.416;23.232;2024-01-25T06:04:45;100434.84;;;9.21;56.07
33697;BME280;20031;43.416;23.232;2024-01-25T06:07:11;100450.28;;;9.23;55.65
33697;BME280;20031;43.416;23.232;2024-01-25T06:09:36;100461.63;;;9.22;55.75
33697;BME280;20031;43.416;23.232;2024-01-25T06:12:02;100475.84;;;9.27;55.72
33697;BME280;20031;43.416;23.232;2024-01-25T06:14:29;100475.31;;;9.33;55.02
33697;BME280;20031;43.416;23.232;2024-01-25T06:16:55;100465.38;;;9.56;54.08
33697;BME280;20031;43.416;23.232;2024-01-25T06:19:21;100462.75;;;9.65;53.05
33697;BME280;20031;43.416;23.232;2024-01-25T06:21:46;100467.53;;;9.69;53.05
33697;BME280;20031;43.416;23.232;2024-01-25T06:24:12;100468.75;;;9.65;53.28
33697;BME280;20031;43.416;23.232;2024-01-25T06:26:37;100473.31;;;9.64;53.40
33697;BME280;20031;43.416;23.232;2024-01-25T06:29:02;100474.25;;;9.63;53.62
33697;BME280;20031;43.416;23.232;2024-01-25T06:31:28;100470.28;;;9.59;53.65
33697;BME280;20031;43.416;23.232;2024-01-25T06:33:53;100478.09;;;9.59;53.74
33697;BME280;20031;43.416;23.232;2024-01-25T06:36:19;100479.59;;;9.61;53.60
33697;BME280;20031;43.416;23.232;2024-01-25T06:38:45;100485.47;;;9.63;53.53
33697;BME280;20031;43.416;23.232;2024-01-25T06:41:10;100475.44;;;9.77;52.82
33697;BME280;20031;43.416;23.232;2024-01-25T06:43:36;100482.66;;;9.83;52.84
33697;BME280;20031;43.416;23.232;2024-01-25T06:46:02;100480.34;;;9.80;52.95
33697;BME280;20031;43.416;23.232;2024-01-25T06:48:27;100483.34;;;9.85;53.05
33697;BME280;20031;43.416;23.232;2024-01-25T06:50:53;100481.97;;;9.81;53.06
33697;BME280;20031;43.416;23.232;2024-01-25T06:53:19;100481.28;;;9.89;53.00
33697;BME280;20031;43.416;23.232;2024-01-25T06:55:44;100478.00;;;9.96;52.90
33697;BME280;20031;43.416;23.232;2024-01-25T06:58:10;100486.75;;;9.95;53.19
33697;BME280;20031;43.416;23.232;2024-01-25T07:00:35;100465.38;;;9.92;53.60
33697;BME280;20031;43.416;23.232;2024-01-25T07:03:04;100475.38;;;9.96;52.95
33697;BME280;20031;43.416;23.232;2024-01-25T07:05:29;100467.72;;;9.95;53.15
33697;BME280;20031;43.416;23.232;2024-01-25T07:07:59;100464.31;;;9.94;53.71
33697;BME280;20031;43.416;23.232;2024-01-25T07:10:26;100479.94;;;9.94;53.64
33697;BME280;20031;43.416;23.232;2024-01-25T07:13:01;100473.72;;;9.95;53.14
33697;BME280;20031;43.416;23.232;2024-01-25T07:15:27;100478.94;;;9.95;53.21
33697;BME280;20031;43.416;23.232;2024-01-25T07:17:52;100486.19;;;9.92;53.70
33697;BME280;20031;43.416;23.232;2024-01-25T07:20:18;100484.16;;;9.95;53.60
33697;BME280;20031;43.416;23.232;2024-01-25T07:22:43;100481.09;;;10.00;53.56
33697;BME280;20031;43.416;23.232;2024-01-25T07:25:09;100480.69;;;10.04;53.41
33697;BME280;20031;43.416;23.232;2024-01-25T07:27:34;100485.75;;;10.06;53.54
33697;BME280;20031;43.416;23.232;2024-01-25T07:30:00;100481.59;;;10.13;53.56
33697;BME280;20031;43.416;23.232;2024-01-25T07:32:25;100484.44;;;10.19;53.08
33697;BME280;20031;43.416;23.232;2024-01-25T07:34:52;100476.03;;;10.25;52.83
33697;BME280;20031;43.416;23.232;2024-01-25T07:37:18;100476.88;;;10.25;53.01
33697;BME280;20031;43.416;23.232;2024-01-25T07:39:44;100472.34;;;10.27;52.62
33697;BME280;20031;43.416;23.232;2024-01-25T07:42:10;100486.16;;;10.28;52.89
33697;BME280;20031;43.416;23.232;2024-01-25T07:44:36;100489.44;;;10.30;53.13
33697;BME280;20031;43.416;23.232;2024-01-25T07:47:02;100487.81;;;10.29;53.08
33697;BME280;20031;43.416;23.232;2024-01-25T07:49:27;100494.50;;;10.31;53.03
33697;BME280;20031;43.416;23.232;2024-01-25T07:51:53;100491.75;;;10.33;52.73
33697;BME280;20031;43.416;23.232;2024-01-25T07:54:18;100502.03;;;10.34;52.43
33697;BME280;20031;43.416;23.232;2024-01-25T07:56:43;100498.31;;;10.37;52.35
33697;BME280;20031;43.416;23.232;2024-01-25T07:59:09;100492.13;;;10.38;52.91
33697;BME280;20031;43.416;23.232;2024-01-25T08:01:35;100486.63;;;10.41;52.79
33697;BME280;20031;43.416;23.232;2024-01-25T08:04:00;100477.72;;;10.43;52.72
33697;BME280;20031;43.416;23.232;2024-01-25T08:06:26;100484.41;;;10.46;52.85
33697;BME280;20031;43.416;23.232;2024-01-25T08:08:52;100479.72;;;10.49;52.86
33697;BME280;20031;43.416;23.232;2024-01-25T08:11:17;100478.59;;;10.52;52.82
33697;BME280;20031;43.416;23.232;2024-01-25T08:13:45;100471.19;;;10.57;52.60
33697;BME280;20031;43.416;23.232;2024-01-25T08:16:11;100460.16;;;10.63;52.07
33697;BME280;20031;43.416;23.232;2024-01-25T08:18:36;100470.13;;;10.67;52.08
33697;BME280;20031;43.416;23.232;2024-01-25T08:21:02;100460.91;;;10.72;51.97
33697;BME280;20031;43.416;23.232;2024-01-25T08:23:27;100458.34;;;10.80;51.67
33697;BME280;20031;43.416;23.232;2024-01-25T08:25:53;100468.06;;;10.88;50.75
33697;BME280;20031;43.416;23.232;2024-01-25T08:28:18;100459.63;;;10.94;50.82
33697;BME280;20031;43.416;23.232;2024-01-25T08:30:45;100457.69;;;10.96;50.45
33697;BME280;20031;43.416;23.232;2024-01-25T08:33:11;100451.19;;;11.00;50.77
33697;BME280;20031;43.416;23.232;2024-01-25T08:35:36;100468.34;;;11.02;50.43
33697;BME280;20031;43.416;23.232;2024-01-25T08:38:02;100461.16;;;11.04;50.88
33697;BME280;20031;43.416;23.232;2024-01-25T08:40:28;100465.13;;;11.08;50.69
33697;BME280;20031;43.416;23.232;2024-01-25T08:42:53;100467.25;;;11.13;50.00
33697;BME280;20031;43.416;23.232;2024-01-25T08:45:18;100474.47;;;11.18;49.89
33697;BME280;20031;43.416;23.232;2024-01-25T08:47:45;100466.34;;;11.21;49.88
33697;BME280;20031;43.416;23.232;2024-01-25T08:50:11;100466.56;;;11.28;48.92
33697;BME280;20031;43.416;23.232;2024-01-25T08:52:37;100470.50;;;11.32;49.72
33697;BME280;20031;43.416;23.232;2024-01-25T08:55:04;100478.84;;;11.35;49.85
33697;BME280;20031;43.416;23.232;2024-01-25T08:57:30;100475.75;;;11.40;49.47
33697;BME280;20031;43.416;23.232;2024-01-25T08:59:56;100480.66;;;11.43;49.21
33697;BME280;20031;43.416;23.232;2024-01-25T09:02:24;100470.91;;;11.45;49.33
33697;BME280;20031;43.416;23.232;2024-01-25T09:04:52;100474.19;;;11.47;49.22
33697;BME280;20031;43.416;23.232;2024-01-25T09:07:19;100474.59;;;11.52;49.49
33697;BME280;20031;43.416;23.232;2024-01-25T09:09:44;100473.97;;;11.58;49.22
33697;BME280;20031;43.416;23.232;2024-01-25T09:12:10;100462.09;;;11.63;50.02
33697;BME280;20031;43.416;23.232;2024-01-25T09:14:37;100475.31;;;11.70;49.07
33697;BME280;20031;43.416;23.232;2024-01-25T09:17:03;100457.75;;;11.79;48.97
33697;BME280;20031;43.416;23.232;2024-01-25T09:19:28;100451.63;;;11.88;49.07
33697;BME280;20031;43.416;23.232;2024-01-25T09:21:54;100455.72;;;11.99;48.99
33697;BME280;20031;43.416;23.232;2024-01-25T09:24:21;100447.91;;;12.07;49.03
33697;BME280;20031;43.416;23.232;2024-01-25T09:26:47;100455.28;;;12.11;48.29
33697;BME280;20031;43.416;23.232;2024-01-25T09:29:12;100461.00;;;12.15;48.61
33697;BME280;20031;43.416;23.232;2024-01-25T09:31:38;100447.13;;;12.14;48.20
33697;BME280;20031;43.416;23.232;2024-01-25T09:34:03;100444.00;;;12.11;47.92
33697;BME280;20031;43.416;23.232;2024-01-25T09:36:29;100445.66;;;12.12;48.04
33697;BME280;20031;43.416;23.232;2024-01-25T09:38:54;100441.25;;;12.12;48.35
33697;BME280;20031;43.416;23.232;2024-01-25T09:41:19;100439.78;;;12.10;48.58
33697;BME280;20031;43.416;23.232;2024-01-25T09:43:45;100451.69;;;12.12;49.07
33697;BME280;20031;43.416;23.232;2024-01-25T09:46:13;100451.69;;;12.12;48.61
33697;BME280;20031;43.416;23.232;2024-01-25T09:48:39;100438.31;;;12.07;48.41
33697;BME280;20031;43.416;23.232;2024-01-25T09:51:06;100443.84;;;12.04;48.76
33697;BME280;20031;43.416;23.232;2024-01-25T09:53:32;100443.00;;;12.04;48.99
33697;BME280;20031;43.416;23.232;2024-01-25T09:56:09;100431.44;;;11.98;48.96
33697;BME280;20031;43.416;23.232;2024-01-25T09:58:39;100443.00;;;11.96;49.08
33697;BME280;20031;43.416;23.232;2024-01-25T10:01:08;100427.50;;;11.94;49.03
33697;BME280;20031;43.416;23.232;2024-01-25T10:03:34;100432.88;;;12.01;48.81
33697;BME280;20031;43.416;23.232;2024-01-25T10:06:00;100439.09;;;12.08;49.21
33697;BME280;20031;43.416;23.232;2024-01-25T10:08:25;100437.00;;;12.11;48.93
33697;BME280;20031;43.416;23.232;2024-01-25T10:10:51;100430.00;;;12.12;48.98
33697;BME280;20031;43.416;23.232;2024-01-25T10:13:19;100420.03;;;12.15;49.04
33697;BME280;20031;43.416;23.232;2024-01-25T10:15:45;100416.16;;;12.27;48.95
33697;BME280;20031;43.416;23.232;2024-01-25T10:18:13;100408.22;;;12.52;48.94
33697;BME280;20031;43.416;23.232;2024-01-25T10:20:39;100409.72;;;12.86;48.79
33697;BME280;20031;43.416;23.232;2024-01-25T10:23:06;100402.44;;;13.28;47.69
33697;BME280;20031;43.416;23.232;2024-01-25T10:25:36;100407.88;;;13.19;46.06
33697;BME280;20031;43.416;23.232;2024-01-25T10:28:07;100396.94;;;12.99;46.32
33697;BME280;20031;43.416;23.232;2024-01-25T10:30:35;100396.44;;;12.96;46.14
33697;BME280;20031;43.416;23.232;2024-01-25T10:33:01;100398.59;;;12.92;46.27
33697;BME280;20031;43.416;23.232;2024-01-25T10:35:28;100393.03;;;12.87;46.05
33697;BME280;20031;43.416;23.232;2024-01-25T10:37:54;100394.66;;;12.88;46.63
33697;BME280;20031;43.416;23.232;2024-01-25T10:40:21;100388.97;;;12.85;47.09
33697;BME280;20031;43.416;23.232;2024-01-25T10:42:47;100385.84;;;12.73;46.59
33697;BME280;20031;43.416;23.232;2024-01-25T10:45:13;100376.84;;;12.60;47.17
33697;BME280;20031;43.416;23.232;2024-01-25T10:47:39;100386.47;;;12.44;46.67
33697;BME280;20031;43.416;23.232;2024-01-25T10:50:07;100376.19;;;12.34;47.01
33697;BME280;20031;43.416;23.232;2024-01-25T10:52:37;100380.09;;;12.38;46.87
33697;BME280;20031;43.416;23.232;2024-01-25T10:55:03;100360.53;;;12.42;46.36
33697;BME280;20031;43.416;23.232;2024-01-25T10:57:57;100351.69;;;12.43;46.65
33697;BME280;20031;43.416;23.232;2024-01-25T11:00:22;100341.25;;;12.59;46.50
33697;BME280;20031;43.416;23.232;2024-01-25T11:02:48;100338.47;;;12.61;45.74
33697;BME280;20031;43.416;23.232;2024-01-25T11:05:16;100351.69;;;12.91;45.74
33697;BME280;20031;43.416;23.232;2024-01-25T11:10:20;100339.25;;;13.55;43.81
33697;BME280;20031;43.416;23.232;2024-01-25T11:12:55;100332.00;;;13.65;44.22
33697;BME280;20031;43.416;23.232;2024-01-25T11:15:23;100325.72;;;13.74;44.20
33697;BME280;20031;43.416;23.232;2024-01-25T11:17:55;100332.59;;;13.75;43.11
33697;BME280;20031;43.416;23.232;2024-01-25T11:20:23;100329.84;;;13.68;43.96
33697;BME280;20031;43.416;23.232;2024-01-25T11:22:48;100324.94;;;13.73;43.54
33697;BME280;20031;43.416;23.232;2024-01-25T11:25:21;100326.97;;;13.55;43.68
33697;BME280;20031;43.416;23.232;2024-01-25T11:27:48;100317.88;;;13.35;42.70
33697;BME280;20031;43.416;23.232;2024-01-25T11:30:17;100328.94;;;13.15;43.36
33697;BME280;20031;43.416;23.232;2024-01-25T11:32:43;100317.03;;;13.05;43.36
33697;BME280;20031;43.416;23.232;2024-01-25T11:35:09;100294.66;;;13.02;43.42
33697;BME280;20031;43.416;23.232;2024-01-25T11:37:38;100302.03;;;12.99;44.21
33697;BME280;20031;43.416;23.232;2024-01-25T11:40:04;100303.16;;;12.96;44.40
33697;BME280;20031;43.416;23.232;2024-01-25T11:42:30;100303.16;;;12.96;44.33
33697;BME280;20031;43.416;23.232;2024-01-25T11:44:56;100299.88;;;12.94;44.63
33697;BME280;20031;43.416;23.232;2024-01-25T11:47:22;100297.94;;;12.96;44.89
33697;BME280;20031;43.416;23.232;2024-01-25T11:49:47;100278.63;;;12.97;44.38
33697;BME280;20031;43.416;23.232;2024-01-25T11:52:14;100283.91;;;12.89;43.67
33697;BME280;20031;43.416;23.232;2024-01-25T11:54:40;100277.88;;;12.89;43.56
33697;BME280;20031;43.416;23.232;2024-01-25T11:57:06;100281.09;;;12.83;43.01
33697;BME280;20031;43.416;23.232;2024-01-25T11:59:31;100275.72;;;12.76;43.41
33697;BME280;20031;43.416;23.232;2024-01-25T12:01:57;100283.41;;;12.78;44.01
33697;BME280;20031;43.416;23.232;2024-01-25T12:04:24;100290.28;;;12.79;44.15
33697;BME280;20031;43.416;23.232;2024-01-25T12:06:50;100302.03;;;12.75;43.90
33697;BME280;20031;43.416;23.232;2024-01-25T12:09:15;100296.97;;;12.73;43.49
33697;BME280;20031;43.416;23.232;2024-01-25T12:11:41;100294.19;;;12.75;43.24
33697;BME280;20031;43.416;23.232;2024-01-25T12:14:10;100303.34;;;12.79;43.11
33697;BME280;20031;43.416;23.232;2024-01-25T12:16:36;100295.34;;;12.88;42.79
33697;BME280;20031;43.416;23.232;2024-01-25T12:19:01;100291.88;;;12.96;42.94
33697;BME280;20031;43.416;23.232;2024-01-25T12:21:28;100289.88;;;13.06;43.02
33697;BME280;20031;43.416;23.232;2024-01-25T12:23:53;100292.72;;;12.96;42.22
33697;BME280;20031;43.416;23.232;2024-01-25T12:26:19;100289.31;;;12.88;42.56
33697;BME280;20031;43.416;23.232;2024-01-25T12:28:45;100298.75;;;12.81;42.40
33697;BME280;20031;43.416;23.232;2024-01-25T12:31:11;100271.19;;;12.71;42.52
33697;BME280;20031;43.416;23.232;2024-01-25T12:33:37;100297.94;;;12.73;42.42
33697;BME280;20031;43.416;23.232;2024-01-25T12:36:03;100288.81;;;12.69;42.45
33697;BME280;20031;43.416;23.232;2024-01-25T12:38:28;100277.22;;;12.63;42.94